createdAt,value
2022-12-23T00:04:08.866Z,37.00
2022-12-23T00:09:11.015Z,38.03
2022-12-23T00:14:31.857Z,38.70
2022-12-23T00:19:33.995Z,36.55
2022-12-23T00:24:36.142Z,38.53
2022-12-23T00:29:38.263Z,38.87
2022-12-23T00:34:40.437Z,37.97
2022-12-23T00:40:06.196Z,36.67
2022-12-23T00:45:18.349Z,33.85
2022-12-23T00:50:20.494Z,33.78
2022-12-23T00:55:22.976Z,27.43
2022-12-23T01:00:45.307Z,32.95
2022-12-23T01:05:47.509Z,27.48
2022-12-23T01:10:49.836Z,31.37
2022-12-23T01:15:52.009Z,30.85
2022-12-23T01:20:54.153Z,29.27
2022-12-23T01:26:00.834Z,28.75
2022-12-23T01:31:05.223Z,28.60
2022-12-23T01:36:09.501Z,30.40
2022-12-23T01:41:42.226Z,30.77
2022-12-23T01:46:44.432Z,28.30
2022-12-23T01:51:46.682Z,26.85
2022-12-23T01:56:48.832Z,27.33
2022-12-23T02:02:09.631Z,26.62
2022-12-23T02:07:32.020Z,27.42
2022-12-23T02:13:07.574Z,28.10
2022-12-23T02:18:09.709Z,28.00
2022-12-23T02:23:46.208Z,30.17
2022-12-23T02:29:06.633Z,28.17
2022-12-23T02:34:39.235Z,30.08
2022-12-23T02:39:59.627Z,29.07
2022-12-23T02:45:23.468Z,31.37
2022-12-23T02:50:32.776Z,31.37
2022-12-23T02:55:39.036Z,31.02
2022-12-23T03:00:43.131Z,33.15
2022-12-23T03:05:47.772Z,33.20
2022-12-23T03:11:07.400Z,34.88
2022-12-23T03:16:20.961Z,33.97
2022-12-23T03:21:35.944Z,35.95
2022-12-23T03:27:12.852Z,36.45
2022-12-23T03:32:17.211Z,35.33
2022-12-23T03:37:22.652Z,35.70
2022-12-23T03:42:35.900Z,36.15
2022-12-23T03:47:48.559Z,37.30
2022-12-23T03:53:15.271Z,37.75
2022-12-23T03:58:29.808Z,36.27
2022-12-23T04:03:40.294Z,37.20
2022-12-23T04:08:44.631Z,36.08
2022-12-23T04:13:48.577Z,35.17
2022-12-23T04:18:51.028Z,38.58
2022-12-23T04:23:53.174Z,37.93
2022-12-23T04:28:55.360Z,34.55
2022-12-23T04:33:57.764Z,37.85
2022-12-23T04:38:59.954Z,38.05
2022-12-23T04:44:02.108Z,38.50
2022-12-23T04:49:04.261Z,38.77
2022-12-23T04:54:06.377Z,37.72
2022-12-23T04:59:09.799Z,32.22
2022-12-23T05:04:12.118Z,30.95
2022-12-23T05:09:14.336Z,32.40
2022-12-23T05:14:16.595Z,32.53
2022-12-23T05:19:18.723Z,30.45
2022-12-23T05:24:20.869Z,29.55
2022-12-23T05:29:22.996Z,30.15
2022-12-23T05:34:25.177Z,29.42
2022-12-23T05:39:27.323Z,27.63
2022-12-23T05:44:29.607Z,28.05
2022-12-23T05:49:31.744Z,27.45
2022-12-23T05:54:33.898Z,27.77
2022-12-23T05:59:36.069Z,32.22
2022-12-23T06:04:38.214Z,31.37
2022-12-23T06:09:40.377Z,30.45
2022-12-23T06:14:42.509Z,30.95
2022-12-23T06:19:44.958Z,28.83
2022-12-23T06:24:47.575Z,25.67
2022-12-23T06:29:49.704Z,26.27
2022-12-23T06:34:53.399Z,25.83
2022-12-23T06:39:55.877Z,23.73
2022-12-23T06:44:58.088Z,22.65
2022-12-23T06:50:00.311Z,21.85
2022-12-23T06:55:02.518Z,21.43
2022-12-23T07:00:05.551Z,20.80
2022-12-23T07:05:08.055Z,24.23
2022-12-23T07:10:10.401Z,22.83
2022-12-23T07:15:12.651Z,19.65
2022-12-23T07:20:15.216Z,22.63
2022-12-23T07:25:17.392Z,20.40
2022-12-23T07:30:19.559Z,22.87
2022-12-23T07:35:21.700Z,22.13
2022-12-23T07:40:24.998Z,22.48
2022-12-23T07:45:29.230Z,21.93
2022-12-23T07:50:31.452Z,21.05
2022-12-23T07:55:33.645Z,20.30
2022-12-23T08:00:35.786Z,20.67
2022-12-23T08:05:38.011Z,22.17
2022-12-23T08:10:47.736Z,20.43
2022-12-23T08:15:55.184Z,21.80
2022-12-23T08:20:59.635Z,21.35
2022-12-23T08:26:09.670Z,22.10
2022-12-23T08:31:14.930Z,21.87
2022-12-23T08:36:23.169Z,19.93
2022-12-23T08:41:28.934Z,21.33
2022-12-23T08:46:31.118Z,21.02
2022-12-23T08:51:33.758Z,21.35
2022-12-23T08:56:39.933Z,22.00
2022-12-23T09:01:42.919Z,20.83
2022-12-23T09:06:45.666Z,19.12
2022-12-23T09:11:47.827Z,21.20
2022-12-23T09:16:52.487Z,22.87
2022-12-23T09:21:54.996Z,21.65
2022-12-23T09:26:57.213Z,22.53
2022-12-23T09:31:59.889Z,23.45
2022-12-23T09:37:02.995Z,23.58
2022-12-23T09:42:32.543Z,24.52
2022-12-23T09:47:35.558Z,24.42
2022-12-23T09:52:49.937Z,22.13
2022-12-23T09:58:01.198Z,22.87
2022-12-23T10:03:34.803Z,23.12
2022-12-23T10:08:47.388Z,21.17
2022-12-23T10:13:58.737Z,18.40
2022-12-23T10:19:20.927Z,20.77
2022-12-23T10:24:33.733Z,19.50
2022-12-23T10:29:37.256Z,17.77
2022-12-23T10:34:49.378Z,21.37
2022-12-23T10:40:00.248Z,20.65
2022-12-23T10:45:24.276Z,22.00
2022-12-23T10:50:38.679Z,23.17
2022-12-23T10:55:40.996Z,21.98
2022-12-23T11:00:49.657Z,22.83
2022-12-23T11:05:53.549Z,22.65
2022-12-23T11:10:56.102Z,23.03
2022-12-23T11:16:18.745Z,22.98
2022-12-23T11:21:21.285Z,21.40
2022-12-23T11:26:24.839Z,24.33
2022-12-23T11:31:32.620Z,24.50
2022-12-23T11:36:35.383Z,22.20
2022-12-23T11:41:44.372Z,23.12
2022-12-23T11:47:22.254Z,23.12
2022-12-23T11:52:27.711Z,21.80
2022-12-23T11:57:44.611Z,22.85
2022-12-23T12:02:50.857Z,24.03
2022-12-23T12:07:58.846Z,24.25
2022-12-23T12:13:20.243Z,23.40
2022-12-23T12:18:23.980Z,23.73
2022-12-23T12:23:43.831Z,23.20
2022-12-23T12:28:52.118Z,21.20
2022-12-23T12:34:09.777Z,24.55
2022-12-23T12:39:33.749Z,21.65
2022-12-23T12:45:25.042Z,21.12
2022-12-23T12:50:33.144Z,22.30
2022-12-23T12:55:42.415Z,22.10
2022-12-23T13:01:19.932Z,23.40
2022-12-23T13:06:28.002Z,24.35
2022-12-23T13:11:50.740Z,24.87
2022-12-23T13:16:58.281Z,24.95
2022-12-23T13:22:09.642Z,23.40
2022-12-23T13:27:17.209Z,25.00
2022-12-23T13:32:40.554Z,23.92
2022-12-23T13:37:56.222Z,23.60
2022-12-23T13:43:06.333Z,23.40
2022-12-23T13:48:41.064Z,25.10
2022-12-23T13:54:20.345Z,23.80
2022-12-23T13:59:22.527Z,23.52
2022-12-23T14:04:54.048Z,22.35
2022-12-23T14:10:21.766Z,24.25
2022-12-23T14:15:26.827Z,22.13
2022-12-23T14:20:47.657Z,21.80
2022-12-23T14:26:09.461Z,22.62
2022-12-23T14:31:37.276Z,23.58
2022-12-23T14:36:39.669Z,21.02
2022-12-23T14:41:56.528Z,22.00
2022-12-23T14:47:03.731Z,22.83
2022-12-23T14:52:44.781Z,22.83
2022-12-23T14:57:47.894Z,22.85
2022-12-23T15:02:57.248Z,22.75
2022-12-23T15:07:59.518Z,23.37
2022-12-23T15:13:03.192Z,24.33
2022-12-23T15:18:11.954Z,23.52
2022-12-23T15:23:17.395Z,23.52
2022-12-23T15:28:23.649Z,24.77
2022-12-23T15:38:55.072Z,23.00
2022-12-23T15:44:01.645Z,21.98
2022-12-23T15:49:05.335Z,25.60
2022-12-23T15:54:08.788Z,22.33
2022-12-23T15:59:23.547Z,22.60
2022-12-23T16:04:29.408Z,21.27
2022-12-23T16:09:35.634Z,25.20
2022-12-23T16:14:40.244Z,21.67
2022-12-23T16:19:48.126Z,22.37
2022-12-23T16:24:56.608Z,23.03
2022-12-23T16:30:02.621Z,22.25
2022-12-23T16:35:12.338Z,22.98
2022-12-23T16:40:14.636Z,20.37
2022-12-23T16:45:16.859Z,22.62
2022-12-23T16:50:19.211Z,21.87
2022-12-23T16:55:21.474Z,21.83
2022-12-23T17:00:23.909Z,22.87
2022-12-23T17:05:26.161Z,21.30
2022-12-23T17:10:28.354Z,21.77
2022-12-23T17:15:30.591Z,22.20
2022-12-23T17:20:32.727Z,20.95
2022-12-23T17:25:34.929Z,23.42
2022-12-23T17:30:37.668Z,21.27
2022-12-23T17:35:39.826Z,21.02
2022-12-23T17:40:45.034Z,20.60
2022-12-23T17:45:51.193Z,21.08
2022-12-23T17:50:53.558Z,21.73
2022-12-23T17:55:55.853Z,21.27
2022-12-23T18:00:58.142Z,20.45
2022-12-23T18:06:02.281Z,21.47
2022-12-23T18:11:06.055Z,21.45
2022-12-23T18:16:12.503Z,20.62
2022-12-23T18:21:20.783Z,22.58
2022-12-23T18:26:23.096Z,21.02
2022-12-23T18:31:27.270Z,21.90
2022-12-23T18:36:33.309Z,21.00
2022-12-23T18:41:35.654Z,21.48
2022-12-23T18:46:37.823Z,21.45
2022-12-23T18:51:40.131Z,22.75
2022-12-23T18:56:42.850Z,22.37
2022-12-23T19:01:45.304Z,22.00
2022-12-23T19:06:47.554Z,20.00
2022-12-23T19:11:53.043Z,21.02
2022-12-23T19:16:55.391Z,22.27
2022-12-23T19:21:58.134Z,22.20
2022-12-23T19:27:16.356Z,23.48
2022-12-23T19:32:22.877Z,21.87
2022-12-23T19:37:25.220Z,24.73
2022-12-23T19:42:27.379Z,22.83
2022-12-23T19:47:29.580Z,22.57
2022-12-23T19:52:31.979Z,23.45
2022-12-23T19:57:34.753Z,22.77
2022-12-23T20:02:37.244Z,22.85
2022-12-23T20:07:39.507Z,23.85
2022-12-23T20:12:42.703Z,24.20
2022-12-23T20:17:44.891Z,22.92
2022-12-23T20:22:47.143Z,22.45
2022-12-23T20:27:49.307Z,24.15
2022-12-23T20:32:51.523Z,23.67
2022-12-23T20:37:53.729Z,25.80
2022-12-23T20:42:55.916Z,24.20
2022-12-23T20:47:58.149Z,21.35
2022-12-23T20:53:00.389Z,23.38
2022-12-23T20:58:22.595Z,24.12
2022-12-23T21:03:24.849Z,25.53
2022-12-23T21:08:27.139Z,23.95
2022-12-23T21:13:29.372Z,24.73
2022-12-23T21:18:31.964Z,25.05
2022-12-23T21:23:38.203Z,26.45
2022-12-23T21:28:42.050Z,24.53
2022-12-23T21:33:45.612Z,23.67
2022-12-23T21:38:48.974Z,22.77
2022-12-23T21:43:51.711Z,22.05
2022-12-23T21:48:58.211Z,22.67
2022-12-23T21:54:01.157Z,22.70
2022-12-23T21:59:10.180Z,23.23
2022-12-23T22:04:12.481Z,23.67
2022-12-23T22:09:19.583Z,21.45
2022-12-23T22:14:21.898Z,21.37
2022-12-23T22:19:24.072Z,22.80
2022-12-23T22:24:26.537Z,21.02
2022-12-23T22:29:28.829Z,19.37
2022-12-23T22:34:31.034Z,18.98
2022-12-23T22:39:33.224Z,21.75
2022-12-23T22:44:35.477Z,20.57
2022-12-23T22:49:37.741Z,20.52
2022-12-23T22:54:39.964Z,19.67
2022-12-23T22:59:42.097Z,20.60
2022-12-23T23:04:44.253Z,20.75
2022-12-23T23:09:46.464Z,19.30
2022-12-23T23:14:54.414Z,18.90
2022-12-23T23:19:56.590Z,20.02
2022-12-23T23:24:58.768Z,19.23
2022-12-23T23:30:00.938Z,19.92
2022-12-23T23:35:08.845Z,20.07
2022-12-23T23:40:13.174Z,21.48
2022-12-23T23:45:15.568Z,20.40
2022-12-23T23:50:17.962Z,20.73
2022-12-23T23:55:20.172Z,22.70
